This is the latest recevied weather packets stored in our database for station/object VK1KCM-5. If no packets are shown the sender has not sent any weather packets the latest 10 day(s).
| Time | Temp. | Humidity | Pressure | Rain* | Wind** | Luminosity | Snow |
|---|---|---|---|---|---|---|---|
| 1787917868 | 5.56° C | 97% | 1029 hPa | 0 mm | - | - | - |
| 1787917584 | 5.56° C | 97% | 1029.2 hPa | 0 mm | - | - | - |
| 1787917323 | 5.56° C | 97% | 1028.9 hPa | 0 mm | - | - | - |
| 1787917043 | 5.56° C | 96% | 1029 hPa | 0 mm | - | - | - |
| 1787916748 | 6.11° C | 97% | 1028.5 hPa | 0 mm | - | - | - |
| 1787916451 | 5.56° C | 96% | 1028.6 hPa | 0 mm | - | - | - |
| 1787916163 | 6.11° C | 96% | 1028.4 hPa | 0 mm | - | - | - |
| 1787915888 | 6.11° C | 96% | 1028.7 hPa | 0 mm | - | - | - |
| 1787915618 | 6.11° C | 96% | 1028.6 hPa | 0 mm | - | - | - |
| 1787915328 | 6.11° C | 96% | 1028.6 hPa | 0 mm | - | - | - |
| 1787915068 | 6.11° C | 96% | 1028.5 hPa | 0 mm | - | - | - |
| 1787914768 | 6.11° C | 95% | 1028.6 hPa | 0 mm | - | - | - |
| 1787914511 | 6.11° C | 95% | 1028.7 hPa | 0 mm | - | - | - |
| 1787914228 | 6.67° C | 95% | 1028.5 hPa | 0 mm | - | - | - |
| 1787913968 | 6.67° C | 95% | 1028.5 hPa | 0 mm | - | - | - |
| 1787913723 | 6.67° C | 95% | 1028.6 hPa | 0 mm | - | - | - |
| 1787913448 | 6.67° C | 95% | 1028.3 hPa | 0 mm | - | - | - |
| 1787913201 | 6.11° C | 95% | 1028.4 hPa | 0 mm | - | - | - |
| 1787912908 | 6.11° C | 94% | 1028.6 hPa | 0 mm | - | - | - |
| 1787912611 | 6.67° C | 94% | 1028.3 hPa | 0 mm | - | - | - |
| 1787912318 | 6.67° C | 94% | 1028.3 hPa | 0 mm | - | - | - |
| 1787912043 | 6.67° C | 94% | 1028.1 hPa | 0 mm | - | - | - |
| 1787911778 | 6.67° C | 94% | 1028.3 hPa | 0 mm | - | - | - |
| 1787911483 | 6.67° C | 93% | 1028.2 hPa | 0 mm | - | - | - |
| 1787911238 | 7.22° C | 93% | 1028 hPa | 0 mm | - | - | - |
* Rain latest hour (hover to see other rain measurements)
** Current wind speed in m/s (hover to see current wind gust speed)